Terminal Aerodrome Forecast
Issued by NWS Rapid City, SD

Home | Current Version | Previous Version | Text Only | Print | Product List | Glossary Off
Versions: 1 2 3 4 5 6 7 8 9 10 11 12 13 14 15 16

000
FTUS43 KUNR 230500
TAFRAP
TAF
KRAP 230520Z 2306/2406 17010KT P6SM BKN120
     FM230900 21010KT P6SM BKN100
     FM231400 32028G40KT P6SM BKN070 OVC150
     FM240000 34010KT P6SM SCT150=

USA.gov is the U.S. government's official web portal to all federal, state and local government web resources and services.